Time;durP1;ratioP1;P1;durP2;ratioP2;P2;SDS_P1;SDS_P2;PMS_P1;PMS_P2;Temp;Humidity;BMP_temperature;BMP_pressure;BME280_temperature;BME280_humidity;BME280_pressure;Samples;Min_cycle;Max_cycle;Signal;HPM_P1;HPM_P2
2022/11/25 00:01:53;;;;;;;;;;;21.50;40.80;;;;;;484238;246;1213;-44
2022/11/25 00:03:54;;;;;;;;;;;21.60;40.90;;;;;;484675;246;1203;-44
2022/11/25 00:05:56;;;;;;;;;;;21.50;40.80;;;;;;484208;246;1255;-44
2022/11/25 00:07:57;;;;;;;;;;;21.50;40.90;;;;;;484658;242;1234;-44
2022/11/25 00:09:58;;;;;;;;;;;21.50;40.90;;;;;;484212;246;1227;-44
2022/11/25 00:11:59;;;;;;;;;;;21.50;40.90;;;;;;484481;246;1224;-44
2022/11/25 00:14:01;;;;;;;;;;;21.50;40.90;;;;;;484536;246;1214;-44
2022/11/25 00:16:02;;;;;;;;;;;21.50;41.00;;;;;;484646;246;2191;-44
2022/11/25 00:18:04;;;;;;;;;;;21.50;41.00;;;;;;484207;246;1218;-44
2022/11/25 00:20:05;;;;;;;;;;;21.40;41.00;;;;;;484466;246;1200;-44
2022/11/25 00:22:06;;;;;;;;;;;21.50;41.00;;;;;;484134;246;1195;-44
2022/11/25 00:24:08;;;;;;;;;;;21.50;41.00;;;;;;484315;246;1323;-44
2022/11/25 00:26:09;;;;;;;;;;;21.50;41.00;;;;;;484627;246;1277;-45
2022/11/25 00:28:10;;;;;;;;;;;21.50;41.00;;;;;;484207;246;1343;-45
2022/11/25 00:30:12;;;;;;;;;;;21.50;41.00;;;;;;484195;246;1254;-45
2022/11/25 00:32:13;;;;;;;;;;;21.50;41.00;;;;;;484642;246;1229;-44
2022/11/25 00:34:14;;;;;;;;;;;21.50;41.00;;;;;;484560;246;1230;-44
2022/11/25 00:36:16;;;;;;;;;;;21.40;41.10;;;;;;484233;246;2177;-44
2022/11/25 00:38:17;;;;;;;;;;;21.50;41.10;;;;;;484463;246;1596;-44
2022/11/25 00:40:19;;;;;;;;;;;21.50;41.00;;;;;;484419;246;1550;-44
2022/11/25 00:44:39;;;;;;;;;;;21.40;41.10;;;;;;484240;246;1308;-44
2022/11/25 00:46:40;;;;;;;;;;;21.40;41.00;;;;;;484150;246;1203;-45
2022/11/25 00:48:42;;;;;;;;;;;21.40;41.00;;;;;;484303;246;1515;-44
2022/11/25 00:50:43;;;;;;;;;;;21.40;41.00;;;;;;484406;246;1387;-44
2022/11/25 00:52:44;;;;;;;;;;;21.40;41.10;;;;;;484442;242;1235;-44
2022/11/25 00:54:46;;;;;;;;;;;21.50;41.10;;;;;;484039;246;1377;-45
2022/11/25 00:56:47;;;;;;;;;;;21.40;41.10;;;;;;484378;246;2198;-44
2022/11/25 00:58:48;;;;;;;;;;;21.40;41.00;;;;;;484119;246;1344;-44
2022/11/25 01:00:50;;;;;;;;;;;21.40;41.00;;;;;;484219;246;1257;-44
2022/11/25 01:02:51;;;;;;;;;;;21.40;41.10;;;;;;484193;246;1218;-45
2022/11/25 01:04:52;;;;;;;;;;;21.40;41.10;;;;;;484486;246;1645;-44
2022/11/25 01:06:55;;;;;;;;;;;21.40;41.10;;;;;;484201;246;1170;-45
2022/11/25 01:08:55;;;;;;;;;;;21.40;41.10;;;;;;484116;246;1908;-44
2022/11/25 01:10:56;;;;;;;;;;;21.40;41.10;;;;;;484176;246;1257;-44
2022/11/25 01:12:57;;;;;;;;;;;21.40;41.10;;;;;;484189;246;1241;-44
2022/11/25 01:14:59;;;;;;;;;;;21.40;41.10;;;;;;484194;246;1271;-44
2022/11/25 01:17:00;;;;;;;;;;;21.40;41.10;;;;;;484202;246;2149;-45
2022/11/25 01:19:02;;;;;;;;;;;21.40;41.10;;;;;;484236;246;1359;-45
2022/11/25 01:21:03;;;;;;;;;;;21.40;41.10;;;;;;484412;246;1189;-44
2022/11/25 01:23:04;;;;;;;;;;;21.40;41.10;;;;;;484636;246;1291;-44
2022/11/25 01:25:06;;;;;;;;;;;21.40;41.10;;;;;;484525;246;1178;-44
2022/11/25 01:27:07;;;;;;;;;;;21.40;41.10;;;;;;484310;246;1343;-44
2022/11/25 01:29:09;;;;;;;;;;;21.40;41.10;;;;;;484454;246;1213;-44
2022/11/25 01:31:10;;;;;;;;;;;21.40;41.20;;;;;;484252;246;1227;-45
2022/11/25 01:33:11;;;;;;;;;;;21.40;41.10;;;;;;484095;246;1691;-44
2022/11/25 01:35:12;;;;;;;;;;;21.40;41.10;;;;;;484519;246;1320;-44
2022/11/25 01:37:14;;;;;;;;;;;21.40;41.10;;;;;;484036;246;2172;-44
2022/11/25 01:39:15;;;;;;;;;;;21.40;41.20;;;;;;484410;242;1311;-44
2022/11/25 01:41:17;;;;;;;;;;;21.30;41.20;;;;;;484482;246;1599;-44
2022/11/25 01:43:18;;;;;;;;;;;21.30;41.10;;;;;;484428;246;1681;-44
2022/11/25 01:45:19;;;;;;;;;;;21.30;41.20;;;;;;484139;246;1292;-44
2022/11/25 01:47:22;;;;;;;;;;;21.30;41.10;;;;;;484143;246;1303;-44
2022/11/25 01:49:22;;;;;;;;;;;21.30;41.10;;;;;;484590;246;1911;-44
2022/11/25 01:51:24;;;;;;;;;;;21.40;41.10;;;;;;484127;246;1293;-45
2022/11/25 01:53:25;;;;;;;;;;;21.30;41.10;;;;;;484375;246;1266;-44
2022/11/25 01:55:27;;;;;;;;;;;21.30;41.10;;;;;;484105;246;1237;-44
2022/11/25 01:57:28;;;;;;;;;;;21.30;41.20;;;;;;484128;246;2199;-45
2022/11/25 01:59:29;;;;;;;;;;;21.30;41.20;;;;;;484150;246;1410;-45
2022/11/25 02:01:30;;;;;;;;;;;21.30;41.20;;;;;;484372;246;1344;-44
2022/11/25 02:03:32;;;;;;;;;;;21.30;41.10;;;;;;484257;246;1814;-44
2022/11/25 02:05:33;;;;;;;;;;;21.30;41.10;;;;;;484377;246;1648;-45
2022/11/25 02:07:34;;;;;;;;;;;21.30;41.20;;;;;;484145;246;1318;-44
2022/11/25 02:09:36;;;;;;;;;;;21.30;41.10;;;;;;484155;246;1549;-44
2022/11/25 02:11:37;;;;;;;;;;;21.40;41.20;;;;;;484599;246;1222;-44
2022/11/25 02:13:38;;;;;;;;;;;21.40;41.10;;;;;;484421;246;1239;-45
2022/11/25 02:15:40;;;;;;;;;;;21.30;41.10;;;;;;484258;246;1280;-44
2022/11/25 02:17:41;;;;;;;;;;;21.30;41.10;;;;;;484156;246;2165;-44
2022/11/25 02:19:43;;;;;;;;;;;21.30;41.20;;;;;;484576;246;1253;-44
2022/11/25 02:21:44;;;;;;;;;;;21.30;41.20;;;;;;484139;246;1615;-44
2022/11/25 02:23:45;;;;;;;;;;;21.30;41.20;;;;;;484150;246;1438;-45
2022/11/25 02:25:47;;;;;;;;;;;21.30;41.20;;;;;;484472;246;1378;-44
2022/11/25 02:27:48;;;;;;;;;;;21.30;41.20;;;;;;484119;246;1416;-44
2022/11/25 02:29:49;;;;;;;;;;;21.30;41.10;;;;;;484047;246;1245;-44
2022/11/25 02:31:51;;;;;;;;;;;21.40;41.20;;;;;;484136;246;1286;-44
2022/11/25 02:33:52;;;;;;;;;;;21.30;41.20;;;;;;483945;246;1739;-45
2022/11/25 02:35:53;;;;;;;;;;;21.30;41.10;;;;;;484066;246;1683;-44
2022/11/25 02:37:55;;;;;;;;;;;21.30;41.10;;;;;;483982;246;2172;-45
2022/11/25 02:39:56;;;;;;;;;;;21.30;41.10;;;;;;484218;246;1642;-45
2022/11/25 02:41:57;;;;;;;;;;;21.30;41.20;;;;;;484248;246;1299;-44
2022/11/25 02:43:59;;;;;;;;;;;21.30;41.10;;;;;;484274;246;1595;-44
2022/11/25 02:46:00;;;;;;;;;;;21.30;41.10;;;;;;484282;246;1573;-44
2022/11/25 02:48:01;;;;;;;;;;;21.30;41.20;;;;;;484379;246;1247;-44
2022/11/25 02:50:03;;;;;;;;;;;21.30;41.20;;;;;;484531;246;1230;-44
2022/11/25 02:52:04;;;;;;;;;;;21.30;41.20;;;;;;484340;246;1302;-44
2022/11/25 02:54:05;;;;;;;;;;;21.30;41.10;;;;;;484115;246;1661;-44
2022/11/25 02:56:07;;;;;;;;;;;21.30;41.10;;;;;;484075;246;1529;-44
2022/11/25 02:58:08;;;;;;;;;;;21.30;41.10;;;;;;484436;246;2195;-45
2022/11/25 03:00:09;;;;;;;;;;;21.30;41.20;;;;;;484069;246;1388;-44
2022/11/25 03:02:11;;;;;;;;;;;21.30;41.10;;;;;;484070;246;1768;-44
2022/11/25 03:04:12;;;;;;;;;;;21.30;41.10;;;;;;484297;246;1263;-44
2022/11/25 03:06:13;;;;;;;;;;;21.30;41.10;;;;;;484383;246;1204;-44
2022/11/25 03:08:15;;;;;;;;;;;21.40;41.20;;;;;;484163;246;1262;-44
2022/11/25 03:10:16;;;;;;;;;;;21.30;41.20;;;;;;484513;246;1481;-44
2022/11/25 03:12:20;;;;;;;;;;;21.30;41.30;;;;;;484246;246;1255;-44
2022/11/25 03:14:21;;;;;;;;;;;21.30;41.20;;;;;;484358;246;1316;-44
2022/11/25 03:16:23;;;;;;;;;;;21.30;41.20;;;;;;484496;246;1233;-44
2022/11/25 03:18:24;;;;;;;;;;;21.30;41.20;;;;;;484414;246;2169;-44
2022/11/25 03:20:25;;;;;;;;;;;21.30;41.20;;;;;;484614;246;1300;-44
2022/11/25 03:22:27;;;;;;;;;;;21.30;41.20;;;;;;484345;246;1251;-45
2022/11/25 03:24:28;;;;;;;;;;;21.30;41.10;;;;;;484226;246;1256;-44
2022/11/25 03:26:30;;;;;;;;;;;21.30;41.10;;;;;;484546;246;1246;-44
2022/11/25 03:28:31;;;;;;;;;;;21.30;41.10;;;;;;484180;246;1246;-44
2022/11/25 03:30:32;;;;;;;;;;;21.30;41.10;;;;;;484690;246;1274;-44
2022/11/25 03:32:33;;;;;;;;;;;21.30;41.10;;;;;;484183;246;1245;-44
2022/11/25 03:34:35;;;;;;;;;;;21.30;41.10;;;;;;484238;246;1250;-44
2022/11/25 03:36:36;;;;;;;;;;;21.30;41.10;;;;;;484496;246;1264;-44
2022/11/25 03:38:37;;;;;;;;;;;21.30;41.10;;;;;;484144;246;2149;-45
2022/11/25 03:40:38;;;;;;;;;;;21.30;41.10;;;;;;484553;246;1245;-44
2022/11/25 03:42:40;;;;;;;;;;;21.30;41.10;;;;;;484455;246;1212;-44
2022/11/25 03:44:41;;;;;;;;;;;21.30;41.10;;;;;;484146;246;1388;-44
2022/11/25 03:46:43;;;;;;;;;;;21.30;41.10;;;;;;484124;246;1268;-45
2022/11/25 03:48:44;;;;;;;;;;;21.30;41.10;;;;;;484062;246;1339;-45
2022/11/25 03:50:46;;;;;;;;;;;21.30;41.20;;;;;;484249;246;1708;-45
2022/11/25 03:52:47;;;;;;;;;;;21.30;41.10;;;;;;484199;246;1233;-44
2022/11/25 03:54:48;;;;;;;;;;;21.30;41.10;;;;;;484062;246;1689;-44
2022/11/25 03:56:50;;;;;;;;;;;21.30;41.10;;;;;;484048;246;1708;-44
2022/11/25 03:58:51;;;;;;;;;;;21.30;41.10;;;;;;484236;246;2136;-44
2022/11/25 04:00:52;;;;;;;;;;;21.30;41.10;;;;;;484082;246;1372;-45
2022/11/25 04:02:54;;;;;;;;;;;21.40;41.10;;;;;;484078;246;1794;-45
2022/11/25 04:04:55;;;;;;;;;;;21.30;41.10;;;;;;484456;246;1709;-44
2022/11/25 04:06:56;;;;;;;;;;;21.30;41.10;;;;;;484113;246;1285;-44
2022/11/25 04:08:57;;;;;;;;;;;21.30;41.10;;;;;;484186;246;1318;-44
2022/11/25 04:10:59;;;;;;;;;;;21.30;41.10;;;;;;484157;246;1310;-45
2022/11/25 04:13:00;;;;;;;;;;;21.30;41.10;;;;;;484129;246;1255;-44
2022/11/25 04:15:01;;;;;;;;;;;21.30;41.10;;;;;;484066;246;1297;-44
2022/11/25 04:17:03;;;;;;;;;;;21.30;41.20;;;;;;484226;246;2162;-44
2022/11/25 04:19:04;;;;;;;;;;;21.30;41.20;;;;;;484148;246;1249;-45
2022/11/25 04:21:05;;;;;;;;;;;21.30;41.20;;;;;;484216;246;1282;-44
2022/11/25 04:23:07;;;;;;;;;;;21.30;41.20;;;;;;484150;246;1305;-44
2022/11/25 04:25:08;;;;;;;;;;;21.30;41.10;;;;;;484247;246;1368;-44
2022/11/25 04:27:10;;;;;;;;;;;21.30;41.10;;;;;;484123;246;1223;-44
2022/11/25 04:29:11;;;;;;;;;;;21.30;41.10;;;;;;484600;246;1283;-44
2022/11/25 04:31:12;;;;;;;;;;;21.30;41.10;;;;;;484261;246;1261;-44
2022/11/25 04:33:14;;;;;;;;;;;21.30;41.10;;;;;;484277;246;1274;-44
2022/11/25 04:35:15;;;;;;;;;;;21.30;41.20;;;;;;484167;246;1198;-44
2022/11/25 04:37:16;;;;;;;;;;;21.30;41.20;;;;;;484202;246;2156;-45
2022/11/25 04:39:18;;;;;;;;;;;21.30;41.10;;;;;;484171;246;1587;-44
2022/11/25 04:41:19;;;;;;;;;;;21.30;41.00;;;;;;484133;246;1286;-44
2022/11/25 04:43:20;;;;;;;;;;;21.30;41.10;;;;;;484539;246;1238;-44
2022/11/25 04:45:22;;;;;;;;;;;21.40;41.10;;;;;;484298;246;1679;-44
2022/11/25 04:47:23;;;;;;;;;;;21.30;41.10;;;;;;484471;246;1243;-44
2022/11/25 04:49:24;;;;;;;;;;;21.30;41.20;;;;;;484139;246;1703;-44
2022/11/25 04:51:26;;;;;;;;;;;21.30;41.20;;;;;;484303;246;1877;-44
2022/11/25 04:53:27;;;;;;;;;;;21.30;41.20;;;;;;484119;246;1737;-44
2022/11/25 04:55:28;;;;;;;;;;;21.30;41.10;;;;;;484473;246;1568;-45
2022/11/25 04:57:30;;;;;;;;;;;21.30;41.20;;;;;;484540;246;2183;-44
2022/11/25 04:59:40;;;;;;;;;;;21.30;41.20;;;;;;484545;246;2160;-44
2022/11/25 05:01:41;;;;;;;;;;;21.30;41.20;;;;;;484265;246;1266;-44
2022/11/25 05:03:43;;;;;;;;;;;21.30;41.10;;;;;;484325;246;1685;-44
2022/11/25 05:05:44;;;;;;;;;;;21.30;41.10;;;;;;484487;246;1749;-44
2022/11/25 05:07:45;;;;;;;;;;;21.30;41.10;;;;;;484156;246;1209;-44
2022/11/25 05:09:47;;;;;;;;;;;21.30;41.10;;;;;;484386;246;1380;-44
2022/11/25 05:11:49;;;;;;;;;;;21.30;41.20;;;;;;484156;246;1239;-44
2022/11/25 05:13:50;;;;;;;;;;;21.30;41.10;;;;;;484492;246;1313;-44
2022/11/25 05:15:51;;;;;;;;;;;21.30;41.20;;;;;;484300;246;1690;-44
2022/11/25 05:17:52;;;;;;;;;;;21.30;41.20;;;;;;484105;246;2200;-44
2022/11/25 05:19:54;;;;;;;;;;;21.30;41.20;;;;;;484538;246;1248;-44
2022/11/25 05:21:55;;;;;;;;;;;21.30;41.20;;;;;;484538;246;1398;-44
2022/11/25 05:23:57;;;;;;;;;;;21.30;41.20;;;;;;484088;246;1242;-44
2022/11/25 05:25:58;;;;;;;;;;;21.30;41.20;;;;;;484292;246;1673;-44
2022/11/25 05:27:59;;;;;;;;;;;21.30;41.20;;;;;;484395;246;1223;-44
2022/11/25 05:30:00;;;;;;;;;;;21.30;41.20;;;;;;484517;246;1311;-44
2022/11/25 05:32:02;;;;;;;;;;;21.30;41.20;;;;;;484062;246;1211;-45
2022/11/25 05:34:03;;;;;;;;;;;21.30;41.20;;;;;;484212;246;1384;-44
2022/11/25 05:36:04;;;;;;;;;;;21.30;41.10;;;;;;484056;246;1239;-44
2022/11/25 05:38:06;;;;;;;;;;;21.30;41.10;;;;;;484148;246;2195;-45
2022/11/25 05:40:07;;;;;;;;;;;21.30;41.10;;;;;;484177;246;1297;-45
2022/11/25 05:42:09;;;;;;;;;;;21.30;41.20;;;;;;484334;246;1334;-44
2022/11/25 05:44:10;;;;;;;;;;;21.30;41.20;;;;;;484112;246;1300;-44
2022/11/25 05:46:11;;;;;;;;;;;21.30;41.10;;;;;;484290;246;1708;-44
2022/11/25 05:48:13;;;;;;;;;;;21.30;41.20;;;;;;484519;246;1261;-44
2022/11/25 05:50:14;;;;;;;;;;;21.30;41.10;;;;;;484137;246;1230;-45
2022/11/25 05:52:15;;;;;;;;;;;21.30;41.10;;;;;;484406;246;1294;-45
2022/11/25 05:54:17;;;;;;;;;;;21.30;41.10;;;;;;484185;246;1651;-44
2022/11/25 05:56:18;;;;;;;;;;;21.30;41.10;;;;;;484134;246;1231;-44
2022/11/25 05:58:19;;;;;;;;;;;21.30;41.20;;;;;;484547;246;2203;-44
2022/11/25 06:00:21;;;;;;;;;;;21.30;41.20;;;;;;484144;246;1318;-44
2022/11/25 06:02:22;;;;;;;;;;;21.30;41.10;;;;;;484212;246;1463;-45
2022/11/25 06:04:23;;;;;;;;;;;21.30;41.10;;;;;;484151;242;1574;-44
2022/11/25 06:06:25;;;;;;;;;;;21.30;41.20;;;;;;483992;246;1274;-44
2022/11/25 06:08:26;;;;;;;;;;;21.30;41.10;;;;;;484017;246;1317;-44
2022/11/25 06:10:27;;;;;;;;;;;21.30;41.10;;;;;;483933;246;1251;-44
2022/11/25 06:12:29;;;;;;;;;;;21.30;41.10;;;;;;484232;246;1241;-44
2022/11/25 06:14:30;;;;;;;;;;;21.30;41.10;;;;;;483995;246;1330;-44
2022/11/25 06:16:31;;;;;;;;;;;21.30;41.10;;;;;;484472;246;1489;-44
2022/11/25 06:18:33;;;;;;;;;;;21.30;41.10;;;;;;484018;246;2224;-45
2022/11/25 06:20:34;;;;;;;;;;;21.30;41.10;;;;;;483728;246;1471;-44
2022/11/25 06:22:35;;;;;;;;;;;21.30;41.00;;;;;;484111;246;1255;-44
2022/11/25 06:24:36;;;;;;;;;;;21.30;41.10;;;;;;484277;246;1268;-44
2022/11/25 06:26:38;;;;;;;;;;;21.30;41.10;;;;;;484112;246;1248;-44
2022/11/25 06:28:39;;;;;;;;;;;21.30;41.10;;;;;;484264;246;1748;-44
2022/11/25 06:30:41;;;;;;;;;;;21.30;41.10;;;;;;484354;246;1768;-44
2022/11/25 06:32:42;;;;;;;;;;;21.30;41.00;;;;;;484058;246;1689;-45
2022/11/25 06:34:43;;;;;;;;;;;21.30;41.00;;;;;;483969;246;1587;-45
2022/11/25 06:36:44;;;;;;;;;;;21.30;41.10;;;;;;484319;246;1205;-44
2022/11/25 06:38:46;;;;;;;;;;;21.30;41.10;;;;;;484353;246;2196;-44
2022/11/25 06:40:47;;;;;;;;;;;21.30;41.10;;;;;;484069;246;1705;-44
2022/11/25 06:42:49;;;;;;;;;;;21.30;41.00;;;;;;484257;246;1742;-45
2022/11/25 06:44:50;;;;;;;;;;;21.30;41.00;;;;;;484106;246;1697;-45
2022/11/25 06:46:51;;;;;;;;;;;21.30;41.10;;;;;;484104;246;1288;-45
2022/11/25 06:48:53;;;;;;;;;;;21.30;41.00;;;;;;484075;246;1344;-45
2022/11/25 06:50:54;;;;;;;;;;;21.30;41.00;;;;;;484075;242;1231;-44
2022/11/25 06:52:55;;;;;;;;;;;21.30;41.00;;;;;;483974;246;1285;-44
2022/11/25 06:54:56;;;;;;;;;;;21.30;41.00;;;;;;483973;246;1240;-44
2022/11/25 06:56:58;;;;;;;;;;;21.30;41.00;;;;;;484049;246;1245;-44
2022/11/25 06:58:59;;;;;;;;;;;21.30;41.00;;;;;;484375;246;2168;-44
2022/11/25 07:01:01;;;;;;;;;;;21.30;41.00;;;;;;484236;246;1252;-44
2022/11/25 07:03:02;;;;;;;;;;;21.30;41.10;;;;;;483991;246;1227;-44
2022/11/25 07:05:04;;;;;;;;;;;21.30;41.10;;;;;;484061;246;1178;-44
2022/11/25 07:07:05;;;;;;;;;;;21.30;41.00;;;;;;484128;246;1270;-44
2022/11/25 07:09:06;;;;;;;;;;;21.30;41.00;;;;;;484048;246;1306;-44
2022/11/25 07:11:08;;;;;;;;;;;21.40;41.00;;;;;;483939;246;1272;-45
2022/11/25 07:13:09;;;;;;;;;;;21.40;40.90;;;;;;484137;246;1340;-45
2022/11/25 07:15:11;;;;;;;;;;;21.60;40.60;;;;;;484070;246;1273;-46
2022/11/25 07:17:12;;;;;;;;;;;21.70;40.10;;;;;;484196;246;1994;-44
2022/11/25 07:19:13;;;;;;;;;;;21.90;39.70;;;;;;484540;246;2152;-44
2022/11/25 07:21:14;;;;;;;;;;;22.00;39.40;;;;;;484067;246;1234;-45
2022/11/25 07:23:16;;;;;;;;;;;22.10;39.30;;;;;;483974;246;1410;-44
2022/11/25 07:25:17;;;;;;;;;;;22.20;39.20;;;;;;484199;246;1381;-44
2022/11/25 07:27:18;;;;;;;;;;;22.30;39.10;;;;;;484230;246;1250;-45
2022/11/25 07:29:20;;;;;;;;;;;22.30;38.90;;;;;;484023;246;1586;-44
2022/11/25 07:31:21;;;;;;;;;;;22.40;38.80;;;;;;483879;246;1223;-45
2022/11/25 07:33:22;;;;;;;;;;;22.40;38.70;;;;;;484049;246;1346;-45
2022/11/25 07:35:24;;;;;;;;;;;22.50;38.60;;;;;;484046;246;1324;-45
2022/11/25 07:37:26;;;;;;;;;;;22.60;38.60;;;;;;483663;246;1624;-44
2022/11/25 07:39:26;;;;;;;;;;;22.60;38.50;;;;;;483822;246;2153;-45
2022/11/25 07:41:28;;;;;;;;;;;22.60;38.20;;;;;;483767;246;1595;-45
2022/11/25 07:43:29;;;;;;;;;;;22.70;38.20;;;;;;483926;246;1646;-44
2022/11/25 07:45:30;;;;;;;;;;;22.70;38.00;;;;;;483819;246;1264;-45
2022/11/25 07:47:32;;;;;;;;;;;22.70;38.10;;;;;;483910;246;1261;-45
2022/11/25 07:49:33;;;;;;;;;;;22.70;38.10;;;;;;484100;246;1194;-45
2022/11/25 07:51:34;;;;;;;;;;;22.80;38.00;;;;;;483776;242;1352;-44
2022/11/25 07:53:35;;;;;;;;;;;22.80;38.00;;;;;;483881;246;1289;-45
2022/11/25 07:55:37;;;;;;;;;;;22.80;37.80;;;;;;483516;246;1407;-44
2022/11/25 07:57:38;;;;;;;;;;;22.90;37.80;;;;;;483507;246;1653;-44
2022/11/25 07:59:40;;;;;;;;;;;22.90;37.80;;;;;;483650;246;2180;-44
2022/11/25 08:01:41;;;;;;;;;;;22.90;37.70;;;;;;483793;246;1276;-45
2022/11/25 08:03:42;;;;;;;;;;;22.90;37.60;;;;;;483837;246;1349;-44
2022/11/25 08:05:43;;;;;;;;;;;23.00;37.70;;;;;;483363;242;1697;-45
2022/11/25 08:07:45;;;;;;;;;;;23.00;37.60;;;;;;484177;246;1302;-45
2022/11/25 08:09:46;;;;;;;;;;;23.00;37.60;;;;;;483687;246;1480;-45
2022/11/25 08:11:47;;;;;;;;;;;23.00;37.50;;;;;;483619;246;1278;-45
2022/11/25 08:13:49;;;;;;;;;;;23.10;37.50;;;;;;483526;246;1415;-45
2022/11/25 08:15:50;;;;;;;;;;;23.10;37.50;;;;;;483774;246;1269;-45
2022/11/25 08:17:52;;;;;;;;;;;23.10;37.40;;;;;;483823;246;1236;-45
2022/11/25 08:19:54;;;;;;;;;;;23.10;37.40;;;;;;483801;246;2188;-45
2022/11/25 08:21:54;;;;;;;;;;;23.10;37.40;;;;;;483818;246;2271;-45
2022/11/25 08:23:56;;;;;;;;;;;23.20;37.30;;;;;;483682;246;1325;-45
2022/11/25 08:25:57;;;;;;;;;;;23.20;37.40;;;;;;483840;246;1940;-45
2022/11/25 08:27:58;;;;;;;;;;;23.20;37.30;;;;;;483845;246;1348;-44
2022/11/25 08:30:00;;;;;;;;;;;23.20;37.30;;;;;;483935;246;1487;-44
2022/11/25 08:32:01;;;;;;;;;;;23.20;37.20;;;;;;483745;246;1215;-45
2022/11/25 08:34:02;;;;;;;;;;;23.30;37.20;;;;;;483804;246;1530;-45
2022/11/25 08:36:04;;;;;;;;;;;23.30;37.20;;;;;;483776;246;1245;-45
2022/11/25 08:38:05;;;;;;;;;;;23.20;37.30;;;;;;483783;246;1224;-45
2022/11/25 08:40:06;;;;;;;;;;;23.20;37.20;;;;;;483729;246;2200;-44
2022/11/25 08:42:08;;;;;;;;;;;23.10;37.40;;;;;;483586;246;1736;-44
2022/11/25 08:44:09;;;;;;;;;;;22.90;37.70;;;;;;483642;246;1378;-45
2022/11/25 08:46:11;;;;;;;;;;;22.70;38.10;;;;;;483823;246;1279;-44
2022/11/25 08:48:15;;;;;;;;;;;22.50;38.50;;;;;;483811;246;1697;-44
2022/11/25 08:50:16;;;;;;;;;;;22.40;38.80;;;;;;483711;246;1202;-44
2022/11/25 08:52:18;;;;;;;;;;;22.20;39.00;;;;;;483756;246;1663;-44
2022/11/25 08:54:19;;;;;;;;;;;22.20;39.10;;;;;;483663;242;1390;-44
2022/11/25 08:56:20;;;;;;;;;;;22.20;39.20;;;;;;483715;246;1384;-44
2022/11/25 08:58:22;;;;;;;;;;;22.10;39.30;;;;;;483231;246;1508;-44
2022/11/25 09:00:23;;;;;;;;;;;22.10;39.40;;;;;;483500;246;2128;-45
2022/11/25 09:02:24;;;;;;;;;;;22.00;39.50;;;;;;484039;246;1195;-44
2022/11/25 09:04:25;;;;;;;;;;;22.00;39.50;;;;;;483793;246;1248;-44
2022/11/25 09:06:27;;;;;;;;;;;21.90;39.50;;;;;;483678;246;1288;-44
2022/11/25 09:08:30;;;;;;;;;;;21.90;39.60;;;;;;483921;246;1195;-45
2022/11/25 09:10:29;;;;;;;;;;;22.00;39.60;;;;;;483731;246;2092;-44
2022/11/25 09:12:31;;;;;;;;;;;22.00;39.60;;;;;;483827;246;1232;-44
2022/11/25 09:14:32;;;;;;;;;;;22.00;39.50;;;;;;483727;246;1283;-44
2022/11/25 09:16:34;;;;;;;;;;;21.90;39.50;;;;;;484011;246;1597;-44
2022/11/25 09:18:35;;;;;;;;;;;21.90;39.50;;;;;;483784;246;1227;-44
2022/11/25 09:20:36;;;;;;;;;;;22.00;39.50;;;;;;483890;246;2536;-44
2022/11/25 09:22:37;;;;;;;;;;;22.00;39.50;;;;;;484107;246;1625;-45
2022/11/25 09:24:40;;;;;;;;;;;22.00;39.50;;;;;;483798;246;1204;-44
2022/11/25 09:26:41;;;;;;;;;;;22.00;39.50;;;;;;483950;246;2036;-45
2022/11/25 09:28:42;;;;;;;;;;;22.00;39.50;;;;;;483728;246;1861;-44
2022/11/25 09:30:43;;;;;;;;;;;21.90;39.50;;;;;;483769;246;1578;-44
2022/11/25 09:32:44;;;;;;;;;;;22.00;39.60;;;;;;484002;246;1244;-44
2022/11/25 09:34:45;;;;;;;;;;;21.90;39.40;;;;;;483804;246;1205;-44
2022/11/25 09:36:47;;;;;;;;;;;22.00;39.50;;;;;;483795;246;1338;-44
2022/11/25 09:38:48;;;;;;;;;;;22.00;39.40;;;;;;483778;246;1301;-44
2022/11/25 09:40:49;;;;;;;;;;;22.00;39.50;;;;;;483761;246;2184;-44
2022/11/25 09:47:29;;;;;;;;;;;22.00;39.50;;;;;;483937;246;1586;-44
2022/11/25 09:49:31;;;;;;;;;;;22.00;39.50;;;;;;483733;246;1392;-44
2022/11/25 09:51:33;;;;;;;;;;;22.00;39.50;;;;;;483756;246;1454;-44
2022/11/25 09:53:33;;;;;;;;;;;22.00;39.60;;;;;;483692;246;1906;-44
2022/11/25 09:55:35;;;;;;;;;;;22.00;39.40;;;;;;483740;246;1452;-44
2022/11/25 09:57:36;;;;;;;;;;;22.00;39.40;;;;;;483938;246;1302;-44
2022/11/25 09:59:37;;;;;;;;;;;22.10;39.40;;;;;;483814;246;2168;-44
2022/11/25 10:01:39;;;;;;;;;;;22.00;39.40;;;;;;483847;246;1236;-44
2022/11/25 10:03:40;;;;;;;;;;;22.00;39.40;;;;;;483631;246;1272;-44
2022/11/25 10:05:41;;;;;;;;;;;22.00;39.40;;;;;;483843;246;1282;-44
2022/11/25 10:07:43;;;;;;;;;;;22.00;39.40;;;;;;483885;246;1634;-44
2022/11/25 10:09:44;;;;;;;;;;;22.10;39.40;;;;;;483766;246;1307;-44
2022/11/25 10:11:45;;;;;;;;;;;22.10;39.40;;;;;;483878;246;1222;-44
2022/11/25 10:13:47;;;;;;;;;;;22.10;39.30;;;;;;483837;246;1380;-44
2022/11/25 10:15:48;;;;;;;;;;;22.10;39.30;;;;;;483930;246;1371;-44
2022/11/25 10:17:49;;;;;;;;;;;22.00;39.30;;;;;;483356;246;1358;-44
2022/11/25 10:19:51;;;;;;;;;;;22.00;39.30;;;;;;483709;246;2164;-44
2022/11/25 10:21:52;;;;;;;;;;;22.00;39.30;;;;;;483826;246;1251;-44
2022/11/25 10:23:53;;;;;;;;;;;22.00;39.30;;;;;;483842;246;1381;-45
2022/11/25 10:25:55;;;;;;;;;;;22.00;39.40;;;;;;483715;246;1185;-45
2022/11/25 10:27:56;;;;;;;;;;;22.00;39.40;;;;;;483625;246;1245;-44
2022/11/25 10:29:57;;;;;;;;;;;22.00;39.40;;;;;;483765;246;1220;-44
2022/11/25 10:31:59;;;;;;;;;;;22.00;39.50;;;;;;483777;246;1160;-45
2022/11/25 10:34:00;;;;;;;;;;;22.00;39.40;;;;;;484022;246;1225;-44
2022/11/25 10:36:01;;;;;;;;;;;21.90;39.40;;;;;;483842;246;1169;-44
2022/11/25 10:38:03;;;;;;;;;;;21.90;39.50;;;;;;483744;246;1342;-44
2022/11/25 10:40:04;;;;;;;;;;;21.80;39.50;;;;;;483933;246;2153;-44
2022/11/25 10:42:07;;;;;;;;;;;21.80;39.60;;;;;;483945;246;1240;-44
2022/11/25 10:44:07;;;;;;;;;;;21.80;39.60;;;;;;483812;246;1935;-44
2022/11/25 10:46:08;;;;;;;;;;;21.80;39.60;;;;;;483966;246;1380;-44
2022/11/25 10:48:10;;;;;;;;;;;21.80;39.60;;;;;;483644;242;1462;-44
2022/11/25 10:50:11;;;;;;;;;;;21.80;39.60;;;;;;483703;246;1241;-45
2022/11/25 10:52:12;;;;;;;;;;;21.80;39.70;;;;;;483736;246;1281;-44
2022/11/25 10:54:14;;;;;;;;;;;21.80;39.70;;;;;;483781;246;1626;-44
2022/11/25 10:56:15;;;;;;;;;;;21.80;39.60;;;;;;483851;246;1215;-44
2022/11/25 10:58:16;;;;;;;;;;;21.80;39.70;;;;;;484009;246;1262;-44
2022/11/25 11:00:18;;;;;;;;;;;21.80;39.70;;;;;;483880;246;2169;-44
2022/11/25 11:02:19;;;;;;;;;;;21.80;39.70;;;;;;483818;246;1304;-44
2022/11/25 11:04:20;;;;;;;;;;;21.80;39.70;;;;;;483899;246;1283;-45
2022/11/25 11:06:22;;;;;;;;;;;21.80;39.70;;;;;;483878;246;1275;-44
2022/11/25 11:08:23;;;;;;;;;;;21.80;39.60;;;;;;483945;246;1303;-44
2022/11/25 11:10:24;;;;;;;;;;;21.80;39.60;;;;;;483939;246;1269;-44
2022/11/25 11:12:26;;;;;;;;;;;21.80;39.60;;;;;;484168;246;1711;-44
2022/11/25 11:14:28;;;;;;;;;;;21.80;39.60;;;;;;483910;246;1286;-44
2022/11/25 11:16:28;;;;;;;;;;;21.80;39.70;;;;;;483789;246;1873;-44
2022/11/25 11:18:30;;;;;;;;;;;21.80;39.60;;;;;;483845;246;1702;-44
2022/11/25 11:20:31;;;;;;;;;;;21.80;39.50;;;;;;483636;242;2176;-44
2022/11/25 11:22:32;;;;;;;;;;;21.80;39.50;;;;;;483801;246;1595;-44
2022/11/25 11:24:34;;;;;;;;;;;21.80;39.50;;;;;;483990;246;1287;-44
2022/11/25 11:26:35;;;;;;;;;;;21.80;39.50;;;;;;483970;246;1198;-44
2022/11/25 11:28:36;;;;;;;;;;;21.80;39.60;;;;;;483811;246;1584;-44
2022/11/25 11:30:38;;;;;;;;;;;21.80;39.60;;;;;;483880;246;1390;-44
2022/11/25 11:32:39;;;;;;;;;;;21.70;39.60;;;;;;483901;246;1325;-44
2022/11/25 11:34:40;;;;;;;;;;;21.70;39.60;;;;;;483953;246;1354;-44
2022/11/25 11:36:41;;;;;;;;;;;21.70;39.60;;;;;;483868;246;1252;-44
2022/11/25 11:38:43;;;;;;;;;;;21.70;39.60;;;;;;483812;246;1687;-44
2022/11/25 11:40:45;;;;;;;;;;;21.70;39.60;;;;;;484139;246;2188;-44
2022/11/25 11:42:45;;;;;;;;;;;21.70;39.70;;;;;;483888;246;1993;-44
2022/11/25 11:44:47;;;;;;;;;;;21.70;39.70;;;;;;483488;246;1312;-44
2022/11/25 11:46:48;;;;;;;;;;;21.70;39.70;;;;;;483736;246;1272;-44
2022/11/25 11:48:50;;;;;;;;;;;21.70;39.70;;;;;;483784;246;1169;-44
2022/11/25 11:50:51;;;;;;;;;;;21.70;39.70;;;;;;483935;246;1825;-45
2022/11/25 11:52:52;;;;;;;;;;;21.70;39.70;;;;;;483802;246;1215;-44
2022/11/25 11:54:54;;;;;;;;;;;21.70;39.80;;;;;;483846;246;1525;-44
2022/11/25 11:56:55;;;;;;;;;;;21.60;39.70;;;;;;483772;246;1223;-44
2022/11/25 11:58:56;;;;;;;;;;;21.60;39.70;;;;;;483817;246;1227;-44
2022/11/25 12:00:58;;;;;;;;;;;21.60;39.70;;;;;;483869;246;2184;-44
2022/11/25 12:02:59;;;;;;;;;;;21.60;39.80;;;;;;483915;246;1265;-44
2022/11/25 12:05:00;;;;;;;;;;;21.60;39.80;;;;;;483753;246;1610;-44